Time;durP1;ratioP1;P1;durP2;ratioP2;P2;SDS_P1;SDS_P2;PMS_P1;PMS_P2;Temp;Humidity;BMP_temperature;BMP_pressure;BME280_temperature;BME280_humidity;BME280_pressure;Samples;Min_cycle;Max_cycle;Signal;HPM_P1;HPM_P2
2023/01/17 00:01:34;;;;;;;;;;;4.00;99.90;;;;;;5138722;27;20373;-43
2023/01/17 00:12:12;;;;;;;;;;;4.10;99.90;;;;;;5158302;27;20323;-43
2023/01/17 00:14:38;;;;;;;;;;;4.00;99.90;;;;;;5142954;27;20374;-43
2023/01/17 00:17:03;;;;;;;;;;;4.10;99.90;;;;;;5137078;27;19919;-43
2023/01/17 01:34:06;;;;;;;;;;;3.20;99.90;;;;;;5155725;27;19969;-48
2023/01/17 01:36:32;;;;;;;;;;;3.10;99.90;;;;;;5156732;27;19910;-46
2023/01/17 01:38:57;;;;;;;;;;;3.10;99.90;;;;;;5137196;27;19922;-54
2023/01/17 01:41:23;;;;;;;;;;;3.10;99.90;;;;;;5141594;27;19915;-51
2023/01/17 01:43:52;;;;;;;;;;;3.00;99.90;;;;;;5156220;27;19972;-45
2023/01/17 01:46:29;;;;;;;;;;;3.00;99.90;;;;;;5156150;27;19921;-47
2023/01/17 01:49:16;;;;;;;;;;;3.00;99.90;;;;;;5135656;27;20232;-46
2023/01/17 01:51:43;;;;;;;;;;;3.00;99.90;;;;;;5135962;27;19933;-46
2023/01/17 01:54:13;;;;;;;;;;;3.00;99.90;;;;;;5155384;27;19911;-47
2023/01/17 01:56:39;;;;;;;;;;;3.00;99.90;;;;;;5155762;27;19926;-47
2023/01/17 01:59:07;;;;;;;;;;;3.10;99.90;;;;;;5155864;27;19914;-47
2023/01/17 02:01:32;;;;;;;;;;;3.10;99.90;;;;;;5153266;27;20006;-47
2023/01/17 02:03:58;;;;;;;;;;;3.00;99.90;;;;;;5136577;27;19998;-45
2023/01/17 02:06:23;;;;;;;;;;;3.10;99.90;;;;;;5123415;27;19907;-49
2023/01/17 02:08:49;;;;;;;;;;;3.00;99.90;;;;;;5141155;27;19919;-44
2023/01/17 02:11:14;;;;;;;;;;;3.10;99.90;;;;;;5151028;27;19911;-45
2023/01/17 02:13:40;;;;;;;;;;;3.10;99.90;;;;;;5146445;27;19912;-47
2023/01/17 02:16:06;;;;;;;;;;;3.10;99.90;;;;;;5118755;27;20508;-47
2023/01/17 02:18:34;;;;;;;;;;;3.10;99.90;;;;;;5153828;27;19990;-46
2023/01/17 02:21:18;;;;;;;;;;;3.00;99.90;;;;;;5139927;27;19950;-49
2023/01/17 02:24:01;;;;;;;;;;;3.00;99.90;;;;;;5134333;27;19912;-52
2023/01/17 02:26:27;;;;;;;;;;;2.90;99.90;;;;;;5134972;27;20374;-46
2023/01/17 02:29:09;;;;;;;;;;;2.90;99.90;;;;;;5135638;27;19914;-47
2023/01/17 02:31:45;;;;;;;;;;;2.80;99.90;;;;;;5143034;27;19919;-48
2023/01/17 02:34:20;;;;;;;;;;;2.80;99.90;;;;;;5127313;27;19957;-54
2023/01/17 02:36:59;;;;;;;;;;;2.80;99.90;;;;;;5134044;27;19961;-55
2023/01/17 02:39:31;;;;;;;;;;;2.80;99.90;;;;;;5116547;27;20026;-52
2023/01/17 02:42:01;;;;;;;;;;;2.80;99.90;;;;;;5126445;27;20308;-48
2023/01/17 02:44:26;;;;;;;;;;;2.70;99.90;;;;;;5133872;27;19922;-53
2023/01/17 02:46:53;;;;;;;;;;;2.70;99.90;;;;;;5153201;27;19907;-50
2023/01/17 02:49:20;;;;;;;;;;;2.70;99.90;;;;;;5140393;27;20432;-53
2023/01/17 02:52:05;;;;;;;;;;;2.60;99.90;;;;;;5134133;27;19908;-48
2023/01/17 02:54:44;;;;;;;;;;;2.60;99.90;;;;;;5134153;27;20475;-51
2023/01/17 02:57:19;;;;;;;;;;;2.60;99.90;;;;;;5133874;27;19925;-53
2023/01/17 02:59:47;;;;;;;;;;;2.60;99.90;;;;;;5134020;27;20259;-47
2023/01/17 03:02:21;;;;;;;;;;;2.60;99.90;;;;;;5147099;27;19912;-49
2023/01/17 03:04:57;;;;;;;;;;;2.60;99.90;;;;;;5153904;27;19962;-46
2023/01/17 03:07:24;;;;;;;;;;;2.70;99.90;;;;;;5139009;27;19922;-48
2023/01/17 03:09:52;;;;;;;;;;;2.70;99.90;;;;;;5154595;27;19922;-52
2023/01/17 03:12:18;;;;;;;;;;;2.70;99.90;;;;;;5153296;27;19998;-52
2023/01/17 03:14:43;;;;;;;;;;;2.70;99.90;;;;;;5154521;27;20003;-50
2023/01/17 03:17:09;;;;;;;;;;;2.70;99.90;;;;;;5135691;27;19933;-55
2023/01/17 03:19:34;;;;;;;;;;;2.80;99.90;;;;;;5151138;27;19915;-49
2023/01/17 03:22:00;;;;;;;;;;;2.80;99.90;;;;;;5154866;27;19907;-50
2023/01/17 03:24:25;;;;;;;;;;;2.80;99.90;;;;;;5140159;27;19937;-51
2023/01/17 03:26:51;;;;;;;;;;;2.80;99.90;;;;;;5133353;27;19995;-54
2023/01/17 03:29:16;;;;;;;;;;;2.90;99.90;;;;;;5134401;27;20325;-49
2023/01/17 03:31:42;;;;;;;;;;;2.90;99.90;;;;;;5133862;27;20002;-53
2023/01/17 03:34:07;;;;;;;;;;;2.90;99.90;;;;;;5132917;27;19912;-52
2023/01/17 03:36:33;;;;;;;;;;;2.90;99.90;;;;;;5134056;27;19908;-46
2023/01/17 03:38:58;;;;;;;;;;;2.90;99.90;;;;;;5150507;27;19911;-52
2023/01/17 03:41:24;;;;;;;;;;;2.80;99.90;;;;;;5153840;27;19907;-46
2023/01/17 03:43:49;;;;;;;;;;;2.90;99.90;;;;;;5153924;27;20413;-52
2023/01/17 03:46:22;;;;;;;;;;;2.80;99.90;;;;;;5112974;28;19915;-47
2023/01/17 03:48:48;;;;;;;;;;;2.80;99.90;;;;;;5145325;27;19911;-45
2023/01/17 03:51:13;;;;;;;;;;;2.80;99.90;;;;;;5153968;27;20421;-54
2023/01/17 03:53:39;;;;;;;;;;;2.80;99.90;;;;;;5153732;27;19918;-52
2023/01/17 03:56:05;;;;;;;;;;;2.80;99.90;;;;;;5153551;27;19942;-47
2023/01/17 03:58:30;;;;;;;;;;;2.70;99.90;;;;;;5153806;27;19911;-51
2023/01/17 04:00:56;;;;;;;;;;;2.70;99.90;;;;;;5151079;27;19964;-52
2023/01/17 04:03:21;;;;;;;;;;;2.70;99.90;;;;;;5153883;27;20290;-46
2023/01/17 04:05:47;;;;;;;;;;;2.80;99.90;;;;;;5153996;27;19962;-50
2023/01/17 04:08:12;;;;;;;;;;;2.70;99.90;;;;;;5141326;27;19915;-49
2023/01/17 04:10:38;;;;;;;;;;;2.70;99.90;;;;;;5134684;27;19919;-50
2023/01/17 04:13:03;;;;;;;;;;;2.70;99.90;;;;;;5142743;27;19918;-53
2023/01/17 04:15:29;;;;;;;;;;;2.70;99.90;;;;;;5140868;27;20494;-48
2023/01/17 04:17:54;;;;;;;;;;;2.70;99.90;;;;;;5144831;27;19956;-48
2023/01/17 04:20:38;;;;;;;;;;;2.60;99.90;;;;;;5142569;27;20007;-49
2023/01/17 04:23:04;;;;;;;;;;;2.60;99.90;;;;;;5134297;27;19952;-53
2023/01/17 04:25:30;;;;;;;;;;;2.50;99.90;;;;;;5153858;27;19911;-47
2023/01/17 04:27:56;;;;;;;;;;;2.50;99.90;;;;;;5153488;27;19933;-46
2023/01/17 04:30:22;;;;;;;;;;;2.40;99.90;;;;;;5151476;27;19922;-46
2023/01/17 04:32:47;;;;;;;;;;;2.40;99.90;;;;;;5133424;27;19911;-46
2023/01/17 04:35:12;;;;;;;;;;;2.40;99.90;;;;;;5132889;27;20158;-50
2023/01/17 04:37:38;;;;;;;;;;;2.40;99.90;;;;;;5133518;27;19919;-48
2023/01/17 04:40:04;;;;;;;;;;;2.40;99.90;;;;;;5132983;27;19920;-50
2023/01/17 04:42:30;;;;;;;;;;;2.40;99.90;;;;;;5136658;27;19908;-53
2023/01/17 04:44:55;;;;;;;;;;;2.40;99.90;;;;;;5136416;27;19918;-51
2023/01/17 04:47:21;;;;;;;;;;;2.40;99.90;;;;;;5137000;27;19918;-52
2023/01/17 04:49:46;;;;;;;;;;;2.40;99.90;;;;;;5139029;27;20001;-52
2023/01/17 04:52:12;;;;;;;;;;;2.40;99.90;;;;;;5146604;27;19964;-54
2023/01/17 04:54:37;;;;;;;;;;;2.30;99.90;;;;;;5097640;28;19916;-53
2023/01/17 04:57:03;;;;;;;;;;;2.30;99.90;;;;;;5095560;28;19908;-52
2023/01/17 04:59:28;;;;;;;;;;;2.30;99.90;;;;;;5095081;28;20010;-48
2023/01/17 05:01:54;;;;;;;;;;;2.30;99.90;;;;;;5095912;28;19908;-56
2023/01/17 05:04:19;;;;;;;;;;;2.20;99.90;;;;;;5118247;27;19911;-49
2023/01/17 05:06:44;;;;;;;;;;;2.20;99.90;;;;;;5108968;27;20003;-51
2023/01/17 05:09:10;;;;;;;;;;;2.20;99.90;;;;;;5112735;28;19912;-50
2023/01/17 05:11:35;;;;;;;;;;;2.20;99.90;;;;;;5115155;28;20282;-47
2023/01/17 05:14:01;;;;;;;;;;;2.20;99.90;;;;;;5115652;28;19912;-51
2023/01/17 05:16:26;;;;;;;;;;;2.10;99.90;;;;;;5115937;28;19912;-53
2023/01/17 05:18:52;;;;;;;;;;;2.10;99.90;;;;;;5101373;28;19919;-53
2023/01/17 05:21:18;;;;;;;;;;;2.10;99.90;;;;;;5095218;28;19924;-51
2023/01/17 05:23:44;;;;;;;;;;;2.10;99.90;;;;;;5108205;28;19962;-52
2023/01/17 05:26:09;;;;;;;;;;;2.10;99.90;;;;;;5107561;28;20343;-54
2023/01/17 05:28:34;;;;;;;;;;;2.20;99.90;;;;;;5095231;28;19965;-52
2023/01/17 05:31:00;;;;;;;;;;;2.20;99.90;;;;;;5095005;28;19912;-50
2023/01/17 05:33:26;;;;;;;;;;;2.10;99.90;;;;;;5094423;28;19939;-55
2023/01/17 05:35:51;;;;;;;;;;;2.10;99.90;;;;;;5095059;28;20283;-52
2023/01/17 05:38:17;;;;;;;;;;;2.00;99.90;;;;;;5104295;28;19941;-51
2023/01/17 05:40:42;;;;;;;;;;;2.00;99.90;;;;;;5114624;28;19970;-53
2023/01/17 05:43:08;;;;;;;;;;;1.90;99.90;;;;;;5115051;28;19958;-49
2023/01/17 05:45:33;;;;;;;;;;;1.90;99.90;;;;;;5115111;28;20332;-49
2023/01/17 05:47:59;;;;;;;;;;;1.80;99.90;;;;;;5114438;28;19912;-49
2023/01/17 05:50:26;;;;;;;;;;;1.80;99.90;;;;;;5115115;28;19939;-48
2023/01/17 05:52:56;;;;;;;;;;;1.80;99.90;;;;;;5118004;27;20386;-50
2023/01/17 05:55:22;;;;;;;;;;;1.70;99.90;;;;;;5114454;27;20015;-49
2023/01/17 05:57:48;;;;;;;;;;;1.60;99.90;;;;;;5115593;27;20006;-51
2023/01/17 06:00:14;;;;;;;;;;;1.60;99.90;;;;;;5119065;27;20421;-49
2023/01/17 06:02:39;;;;;;;;;;;1.50;99.90;;;;;;5115395;27;19947;-51
2023/01/17 06:05:05;;;;;;;;;;;1.50;99.90;;;;;;5115108;28;20086;-50
2023/01/17 06:07:30;;;;;;;;;;;1.40;99.90;;;;;;5115149;27;19999;-48
2023/01/17 06:09:56;;;;;;;;;;;1.40;99.90;;;;;;5121351;27;19922;-51
2023/01/17 06:12:21;;;;;;;;;;;1.30;99.90;;;;;;5127234;27;19923;-50
2023/01/17 06:14:46;;;;;;;;;;;1.30;99.90;;;;;;5133972;27;20034;-54
2023/01/17 06:17:12;;;;;;;;;;;1.30;99.90;;;;;;5115945;27;19919;-51
2023/01/17 06:19:37;;;;;;;;;;;1.20;99.90;;;;;;5131811;27;19926;-47
2023/01/17 06:22:03;;;;;;;;;;;1.20;99.90;;;;;;5134626;27;19908;-47
2023/01/17 06:24:29;;;;;;;;;;;1.20;99.90;;;;;;5118099;27;19916;-50
2023/01/17 06:26:55;;;;;;;;;;;1.20;99.90;;;;;;5134300;27;19911;-49
2023/01/17 06:29:20;;;;;;;;;;;1.10;99.90;;;;;;5134040;27;19911;-49
2023/01/17 06:31:45;;;;;;;;;;;1.10;99.90;;;;;;5121622;27;20419;-48
2023/01/17 06:34:11;;;;;;;;;;;1.20;99.90;;;;;;5113925;28;20006;-51
2023/01/17 06:36:36;;;;;;;;;;;1.20;99.90;;;;;;5113693;28;19911;-52
2023/01/17 06:39:02;;;;;;;;;;;1.20;99.90;;;;;;5129382;27;20373;-54
2023/01/17 06:41:27;;;;;;;;;;;1.20;99.90;;;;;;5134131;27;20010;-50
2023/01/17 06:43:53;;;;;;;;;;;1.20;99.90;;;;;;5133783;27;19911;-48
2023/01/17 06:46:19;;;;;;;;;;;1.20;99.90;;;;;;5134167;27;19956;-50
2023/01/17 06:48:44;;;;;;;;;;;1.20;99.90;;;;;;5133995;27;19994;-49
2023/01/17 06:51:10;;;;;;;;;;;1.20;99.90;;;;;;5124030;27;19912;-51
2023/01/17 06:53:35;;;;;;;;;;;1.20;99.90;;;;;;5113732;28;20397;-51
2023/01/17 06:56:01;;;;;;;;;;;1.20;99.90;;;;;;5126439;27;19911;-48
2023/01/17 06:58:27;;;;;;;;;;;1.20;99.90;;;;;;5133426;27;19911;-48
2023/01/17 07:00:52;;;;;;;;;;;1.20;99.90;;;;;;5131786;27;20267;-51
2023/01/17 07:03:19;;;;;;;;;;;1.20;99.90;;;;;;5133043;27;19916;-51
2023/01/17 07:05:45;;;;;;;;;;;1.20;99.90;;;;;;5133292;27;19958;-49
2023/01/17 07:08:10;;;;;;;;;;;1.20;99.90;;;;;;5125333;27;19953;-51
2023/01/17 07:10:35;;;;;;;;;;;1.10;99.90;;;;;;5129448;27;19922;-52
2023/01/17 07:13:01;;;;;;;;;;;1.10;99.90;;;;;;5131455;27;19907;-50
2023/01/17 07:15:26;;;;;;;;;;;1.10;99.90;;;;;;5113563;28;19912;-49
2023/01/17 07:17:52;;;;;;;;;;;1.10;99.90;;;;;;5112740;28;19912;-49
2023/01/17 07:20:17;;;;;;;;;;;1.10;99.90;;;;;;5113347;28;19916;-51
2023/01/17 07:22:43;;;;;;;;;;;1.00;99.90;;;;;;5115416;27;19914;-49
2023/01/17 07:25:09;;;;;;;;;;;1.10;99.90;;;;;;5131042;27;20432;-51
2023/01/17 07:27:34;;;;;;;;;;;1.00;99.90;;;;;;5133313;27;19911;-49
2023/01/17 07:30:00;;;;;;;;;;;1.00;99.90;;;;;;5133444;27;19915;-47
2023/01/17 07:32:25;;;;;;;;;;;1.00;99.90;;;;;;5123707;27;20384;-50
2023/01/17 07:34:50;;;;;;;;;;;1.00;99.90;;;;;;5115606;27;19907;-48
2023/01/17 07:37:16;;;;;;;;;;;1.00;99.90;;;;;;5112912;28;19952;-50
2023/01/17 07:39:42;;;;;;;;;;;1.00;99.90;;;;;;5117262;27;20278;-50
2023/01/17 07:42:08;;;;;;;;;;;1.10;99.90;;;;;;5129521;27;19919;-51
2023/01/17 07:44:33;;;;;;;;;;;1.10;99.90;;;;;;5128752;27;19980;-52
2023/01/17 07:46:59;;;;;;;;;;;1.10;99.90;;;;;;5123762;27;20006;-50
2023/01/17 07:49:24;;;;;;;;;;;1.10;99.90;;;;;;5129768;27;19915;-47
2023/01/17 07:51:50;;;;;;;;;;;1.20;99.90;;;;;;5125354;27;19919;-51
2023/01/17 07:54:15;;;;;;;;;;;1.20;99.90;;;;;;5128555;28;20502;-47
2023/01/17 07:56:44;;;;;;;;;;;1.20;99.90;;;;;;5127554;28;19915;-47
2023/01/17 07:59:10;;;;;;;;;;;1.20;99.90;;;;;;5112548;28;19914;-51
2023/01/17 08:01:35;;;;;;;;;;;1.20;99.90;;;;;;5115314;28;19908;-49
2023/01/17 08:04:01;;;;;;;;;;;1.10;99.90;;;;;;5129673;28;20444;-48
2023/01/17 08:06:28;;;;;;;;;;;1.10;99.90;;;;;;5112558;28;19912;-49
2023/01/17 08:08:55;;;;;;;;;;;1.10;99.90;;;;;;5112244;28;20378;-49
2023/01/17 08:11:20;;;;;;;;;;;1.10;99.90;;;;;;5113634;28;19973;-49
2023/01/17 08:13:46;;;;;;;;;;;1.10;99.90;;;;;;5112476;28;20010;-52
2023/01/17 08:16:11;;;;;;;;;;;1.10;99.90;;;;;;5117716;27;19912;-52
2023/01/17 08:18:37;;;;;;;;;;;1.20;99.90;;;;;;5135920;27;20332;-52
2023/01/17 08:21:03;;;;;;;;;;;1.20;99.90;;;;;;5136694;27;19919;-50
2023/01/17 08:23:30;;;;;;;;;;;1.20;99.90;;;;;;5136688;27;20404;-48
2023/01/17 08:25:58;;;;;;;;;;;1.30;99.90;;;;;;5137017;27;19955;-49
2023/01/17 08:28:24;;;;;;;;;;;1.30;99.90;;;;;;5129099;27;19915;-47
2023/01/17 08:30:49;;;;;;;;;;;1.40;99.90;;;;;;5116670;28;20393;-53
2023/01/17 08:33:15;;;;;;;;;;;1.40;99.90;;;;;;5121154;27;20009;-47
2023/01/17 08:35:49;;;;;;;;;;;1.30;99.90;;;;;;5135618;27;20381;-48
2023/01/17 08:38:15;;;;;;;;;;;1.40;99.90;;;;;;5136346;27;19918;-47
2023/01/17 08:40:40;;;;;;;;;;;1.40;99.90;;;;;;5141990;27;19919;-50
2023/01/17 08:43:05;;;;;;;;;;;1.40;99.90;;;;;;5124661;27;20415;-52
2023/01/17 08:45:31;;;;;;;;;;;1.40;99.90;;;;;;5117540;27;19915;-49
2023/01/17 08:47:57;;;;;;;;;;;1.40;99.90;;;;;;5122970;27;19918;-49
2023/01/17 08:50:24;;;;;;;;;;;1.40;99.90;;;;;;5157112;27;20388;-48
2023/01/17 08:52:52;;;;;;;;;;;1.40;99.90;;;;;;5148732;27;20373;-47
2023/01/17 08:55:17;;;;;;;;;;;1.40;99.90;;;;;;5136525;27;19957;-50
2023/01/17 08:57:43;;;;;;;;;;;1.40;99.90;;;;;;5130758;27;19912;-49
2023/01/17 09:00:08;;;;;;;;;;;1.40;99.90;;;;;;5127534;27;19923;-49
2023/01/17 09:02:35;;;;;;;;;;;1.40;99.90;;;;;;5115761;28;19912;-51
2023/01/17 09:05:02;;;;;;;;;;;1.50;99.90;;;;;;5127905;27;20279;-49
2023/01/17 09:07:28;;;;;;;;;;;1.50;99.90;;;;;;5136496;27;20372;-52
2023/01/17 09:09:53;;;;;;;;;;;1.60;99.90;;;;;;5136497;27;19907;-49
2023/01/17 09:12:21;;;;;;;;;;;1.60;99.90;;;;;;5135923;27;19908;-49
2023/01/17 09:14:46;;;;;;;;;;;1.70;99.90;;;;;;5136615;27;19907;-52
2023/01/17 09:17:12;;;;;;;;;;;1.80;99.90;;;;;;5122998;27;19961;-49
2023/01/17 09:19:40;;;;;;;;;;;1.80;99.90;;;;;;5115273;28;19920;-51
2023/01/17 09:22:06;;;;;;;;;;;1.80;99.90;;;;;;5115587;28;19907;-52
2023/01/17 09:24:32;;;;;;;;;;;1.90;99.90;;;;;;5115135;27;19961;-52
2023/01/17 09:26:57;;;;;;;;;;;2.00;99.90;;;;;;5124453;27;19915;-50
2023/01/17 09:29:23;;;;;;;;;;;2.10;99.90;;;;;;5126769;27;20006;-49
2023/01/17 09:31:48;;;;;;;;;;;2.10;99.90;;;;;;5132209;27;19911;-51
2023/01/17 09:34:14;;;;;;;;;;;2.10;99.90;;;;;;5136155;27;19907;-51
2023/01/17 09:36:40;;;;;;;;;;;2.10;99.90;;;;;;5135603;27;19908;-50
2023/01/17 09:39:07;;;;;;;;;;;2.10;99.90;;;;;;5133976;27;19914;-51
2023/01/17 09:41:40;;;;;;;;;;;2.20;99.90;;;;;;5135835;27;20289;-51
2023/01/17 09:44:12;;;;;;;;;;;2.20;99.90;;;;;;5123153;27;19915;-52
2023/01/17 09:46:42;;;;;;;;;;;2.30;99.90;;;;;;5114947;28;19911;-52
2023/01/17 09:49:12;;;;;;;;;;;2.30;99.90;;;;;;5115145;28;19912;-51
2023/01/17 09:51:37;;;;;;;;;;;2.30;99.90;;;;;;5130357;27;19917;-48
2023/01/17 09:54:03;;;;;;;;;;;2.40;99.90;;;;;;5134476;27;20014;-50
2023/01/17 09:56:35;;;;;;;;;;;2.40;99.90;;;;;;5135685;27;19911;-53
2023/01/17 09:59:00;;;;;;;;;;;2.40;99.90;;;;;;5135688;27;19907;-51
2023/01/17 10:01:38;;;;;;;;;;;2.50;99.90;;;;;;5135019;27;20415;-48
2023/01/17 10:04:23;;;;;;;;;;;2.60;99.90;;;;;;5135590;27;19913;-51
2023/01/17 10:07:06;;;;;;;;;;;2.60;99.90;;;;;;5134974;27;20354;-51
2023/01/17 10:09:32;;;;;;;;;;;2.70;99.90;;;;;;5124872;27;19907;-48
2023/01/17 10:12:12;;;;;;;;;;;2.80;99.90;;;;;;5123909;27;19960;-50
2023/01/17 10:14:46;;;;;;;;;;;2.90;99.90;;;;;;5129262;27;20013;-50
2023/01/17 10:17:12;;;;;;;;;;;2.90;99.90;;;;;;5127050;27;20150;-49
2023/01/17 10:19:37;;;;;;;;;;;3.00;99.90;;;;;;5120207;27;19915;-50
2023/01/17 10:22:21;;;;;;;;;;;3.00;99.90;;;;;;5133430;27;20355;-53
2023/01/17 10:25:05;;;;;;;;;;;3.10;99.90;;;;;;5101819;28;20267;-51
2023/01/17 10:27:33;;;;;;;;;;;3.20;99.90;;;;;;5113645;28;19912;-52
2023/01/17 10:30:01;;;;;;;;;;;3.20;99.90;;;;;;5113285;28;19961;-48
2023/01/17 10:32:31;;;;;;;;;;;3.30;99.90;;;;;;5113821;28;19915;-48
2023/01/17 10:34:58;;;;;;;;;;;3.30;99.90;;;;;;5113249;28;19915;-49
2023/01/17 10:37:40;;;;;;;;;;;3.40;99.90;;;;;;5132771;27;19914;-53
2023/01/17 10:40:18;;;;;;;;;;;3.50;99.90;;;;;;5115341;27;20001;-49
2023/01/17 10:42:50;;;;;;;;;;;3.60;99.90;;;;;;5112791;28;19928;-49
2023/01/17 10:45:19;;;;;;;;;;;3.60;99.90;;;;;;5113686;28;19936;-53
2023/01/17 10:47:47;;;;;;;;;;;3.70;99.90;;;;;;5113249;28;19915;-53
2023/01/17 10:50:12;;;;;;;;;;;3.70;99.90;;;;;;5112596;28;19908;-51
2023/01/17 10:52:38;;;;;;;;;;;3.70;99.90;;;;;;5113272;28;19926;-47
2023/01/17 10:55:27;;;;;;;;;;;3.80;99.90;;;;;;5113995;27;19911;-50
2023/01/17 10:57:53;;;;;;;;;;;3.90;99.90;;;;;;5112628;28;19908;-52
2023/01/17 11:00:21;;;;;;;;;;;3.90;99.90;;;;;;5112945;28;19923;-51
2023/01/17 11:02:49;;;;;;;;;;;3.90;99.90;;;;;;5113165;28;19911;-53
2023/01/17 11:05:35;;;;;;;;;;;4.00;99.90;;;;;;5112805;28;20007;-52
2023/01/17 11:08:01;;;;;;;;;;;4.00;99.90;;;;;;5116444;27;19918;-51
2023/01/17 11:10:38;;;;;;;;;;;4.10;99.90;;;;;;5133087;27;19907;-51
2023/01/17 11:13:19;;;;;;;;;;;4.10;99.90;;;;;;5133397;27;19955;-52
2023/01/17 11:15:47;;;;;;;;;;;4.20;99.90;;;;;;5133068;27;20314;-53
2023/01/17 11:18:17;;;;;;;;;;;4.20;99.90;;;;;;5132838;27;19914;-53
2023/01/17 11:20:42;;;;;;;;;;;4.30;99.90;;;;;;5133484;27;19922;-51
2023/01/17 11:23:14;;;;;;;;;;;4.30;99.90;;;;;;5129216;27;19912;-52
2023/01/17 11:25:47;;;;;;;;;;;4.30;99.90;;;;;;5121026;27;20088;-49
2023/01/17 11:28:29;;;;;;;;;;;4.40;99.90;;;;;;5133019;27;19952;-51
2023/01/17 11:30:59;;;;;;;;;;;4.50;99.90;;;;;;5130245;27;19912;-53
2023/01/17 11:33:55;;;;;;;;;;;4.50;99.90;;;;;;5132769;27;19921;-53
2023/01/17 11:36:23;;;;;;;;;;;4.50;99.90;;;;;;5130357;27;19907;-55
2023/01/17 11:38:55;;;;;;;;;;;4.50;99.90;;;;;;5132193;27;19975;-54
2023/01/17 11:41:26;;;;;;;;;;;4.60;99.90;;;;;;5127610;27;19922;-52
2023/01/17 11:43:53;;;;;;;;;;;4.60;99.90;;;;;;5132374;27;19915;-50
2023/01/17 11:46:19;;;;;;;;;;;4.60;99.90;;;;;;5131901;27;20389;-49
2023/01/17 11:48:52;;;;;;;;;;;4.60;99.90;;;;;;5132842;27;19908;-55
2023/01/17 11:51:28;;;;;;;;;;;4.50;99.90;;;;;;5117883;27;19916;-55
2023/01/17 11:54:02;;;;;;;;;;;4.40;99.90;;;;;;5129725;27;20014;-51
2023/01/17 11:56:27;;;;;;;;;;;4.40;99.90;;;;;;5131293;28;19911;-52
2023/01/17 11:59:06;;;;;;;;;;;4.40;99.90;;;;;;5131072;28;19908;-51
2023/01/17 12:01:34;;;;;;;;;;;4.50;99.90;;;;;;5129976;28;19916;-54
2023/01/17 12:04:32;;;;;;;;;;;4.60;99.90;;;;;;5132065;28;20374;-52
2023/01/17 12:07:14;;;;;;;;;;;4.60;99.90;;;;;;5086505;28;19951;-50
2023/01/17 12:09:51;;;;;;;;;;;4.80;99.90;;;;;;5133096;28;19912;-50
2023/01/17 12:15:16;;;;;;;;;;;4.80;99.90;;;;;;5131912;28;19968;-53
2023/01/17 12:17:53;;;;;;;;;;;4.80;99.90;;;;;;5132647;28;20361;-51
2023/01/17 12:20:23;;;;;;;;;;;4.70;99.90;;;;;;5132226;28;19916;-55
2023/01/17 12:22:52;;;;;;;;;;;4.60;99.90;;;;;;5132962;28;19968;-52
2023/01/17 12:25:20;;;;;;;;;;;4.70;99.90;;;;;;5132246;28;19908;-51
2023/01/17 12:27:45;;;;;;;;;;;4.90;99.90;;;;;;5132322;28;20281;-51
2023/01/17 12:30:11;;;;;;;;;;;4.90;99.90;;;;;;5132447;28;20373;-53
2023/01/17 12:32:56;;;;;;;;;;;5.00;99.90;;;;;;5132555;28;20358;-53
2023/01/17 12:35:26;;;;;;;;;;;5.10;99.90;;;;;;5132234;28;19919;-51
2023/01/17 12:37:57;;;;;;;;;;;5.10;99.90;;;;;;5132770;28;20412;-54
2023/01/17 12:40:29;;;;;;;;;;;5.10;99.90;;;;;;5132356;28;19976;-53
2023/01/17 12:43:15;;;;;;;;;;;5.10;99.90;;;;;;5131794;28;19911;-54
2023/01/17 12:45:44;;;;;;;;;;;5.10;99.90;;;;;;5131691;28;19907;-51
2023/01/17 12:48:10;;;;;;;;;;;5.20;99.90;;;;;;5132177;28;19926;-54
2023/01/17 12:50:41;;;;;;;;;;;5.20;99.90;;;;;;5129718;28;19915;-57
2023/01/17 12:53:26;;;;;;;;;;;5.30;99.90;;;;;;5114692;28;19927;-54
2023/01/17 12:55:55;;;;;;;;;;;5.40;99.90;;;;;;5131331;28;19964;-57
2023/01/17 12:58:21;;;;;;;;;;;5.50;99.90;;;;;;5132233;28;19911;-56
2023/01/17 13:00:50;;;;;;;;;;;5.50;99.90;;;;;;5122797;28;20022;-55
2023/01/17 13:03:27;;;;;;;;;;;5.50;99.90;;;;;;5115554;27;19912;-55
2023/01/17 13:05:54;;;;;;;;;;;5.60;99.90;;;;;;5123668;27;19915;-55
2023/01/17 13:08:31;;;;;;;;;;;5.70;99.90;;;;;;5122361;27;19918;-55
2023/01/17 13:11:02;;;;;;;;;;;5.60;99.90;;;;;;5131442;27;19907;-56
2023/01/17 13:13:29;;;;;;;;;;;5.60;99.90;;;;;;5129312;27;20010;-55
2023/01/17 13:15:56;;;;;;;;;;;5.60;99.90;;;;;;5123344;27;19915;-53
2023/01/17 13:18:28;;;;;;;;;;;5.60;99.90;;;;;;5124876;27;19930;-55
2023/01/17 13:21:06;;;;;;;;;;;5.60;99.90;;;;;;5135272;27;19916;-58
2023/01/17 13:23:52;;;;;;;;;;;5.50;99.90;;;;;;5133100;27;19911;-56
2023/01/17 13:26:38;;;;;;;;;;;5.50;99.90;;;;;;5134789;27;19956;-56
2023/01/17 13:29:15;;;;;;;;;;;5.50;99.90;;;;;;5120116;27;19911;-56
2023/01/17 13:31:47;;;;;;;;;;;5.40;99.90;;;;;;5135130;27;19915;-55
2023/01/17 13:34:12;;;;;;;;;;;5.50;99.90;;;;;;5128106;27;20392;-56
2023/01/17 13:36:56;;;;;;;;;;;5.50;99.90;;;;;;5123854;27;19915;-56
2023/01/17 13:39:40;;;;;;;;;;;5.50;99.90;;;;;;5131777;27;20281;-56
2023/01/17 13:42:13;;;;;;;;;;;5.40;99.90;;;;;;5134775;27;19911;-57
2023/01/17 13:44:39;;;;;;;;;;;5.30;99.90;;;;;;5134901;27;19922;-56
2023/01/17 13:47:06;;;;;;;;;;;5.20;99.90;;;;;;5133958;27;19915;-56
2023/01/17 13:49:33;;;;;;;;;;;5.00;99.90;;;;;;5135784;27;19915;-56
2023/01/17 13:52:09;;;;;;;;;;;4.90;99.90;;;;;;5134987;27;19915;-56
2023/01/17 13:54:42;;;;;;;;;;;4.90;99.90;;;;;;5135940;27;19920;-55
2023/01/17 13:57:24;;;;;;;;;;;4.90;99.90;;;;;;5128283;27;20362;-56
2023/01/17 13:59:50;;;;;;;;;;;4.90;99.90;;;;;;5114788;28;20022;-57
2023/01/17 14:02:31;;;;;;;;;;;4.90;99.90;;;;;;5115266;27;19907;-56
2023/01/17 14:05:05;;;;;;;;;;;4.90;99.90;;;;;;5125908;27;20374;-57
2023/01/17 14:07:32;;;;;;;;;;;4.80;99.90;;;;;;5114687;28;19912;-58
2023/01/17 14:09:57;;;;;;;;;;;4.80;99.90;;;;;;5116642;27;19907;-57
2023/01/17 14:12:25;;;;;;;;;;;4.60;99.90;;;;;;5127718;27;20002;-56
2023/01/17 14:14:54;;;;;;;;;;;4.60;99.90;;;;;;5134705;27;19911;-57
2023/01/17 14:17:21;;;;;;;;;;;4.50;99.90;;;;;;5134685;27;20685;-57
2023/01/17 14:19:48;;;;;;;;;;;4.50;99.90;;;;;;5128218;27;20323;-56
2023/01/17 14:22:21;;;;;;;;;;;4.40;99.90;;;;;;5133497;27;19915;-57
2023/01/17 14:24:55;;;;;;;;;;;4.50;99.90;;;;;;5129663;27;19908;-57
2023/01/17 14:27:25;;;;;;;;;;;4.70;99.90;;;;;;5128852;27;19977;-57
2023/01/17 14:29:55;;;;;;;;;;;4.80;99.90;;;;;;5133299;27;19911;-57
2023/01/17 14:32:22;;;;;;;;;;;4.90;99.90;;;;;;5125973;27;19912;-59
2023/01/17 14:34:49;;;;;;;;;;;5.10;99.90;;;;;;5124892;27;19958;-57
2023/01/17 14:37:17;;;;;;;;;;;5.40;99.90;;;;;;5119377;27;19912;-57
2023/01/17 14:39:44;;;;;;;;;;;5.70;99.90;;;;;;5121051;27;19926;-59
2023/01/17 14:42:14;;;;;;;;;;;5.80;99.90;;;;;;5130845;27;19907;-58
2023/01/17 14:44:39;;;;;;;;;;;6.00;99.90;;;;;;5129585;27;20267;-58
2023/01/17 14:47:05;;;;;;;;;;;6.10;99.90;;;;;;5122113;27;20358;-57
2023/01/17 14:49:30;;;;;;;;;;;6.20;99.90;;;;;;5133545;27;19955;-58
2023/01/17 14:52:00;;;;;;;;;;;6.20;99.40;;;;;;5127304;27;19918;-60
2023/01/17 14:54:25;;;;;;;;;;;6.20;99.90;;;;;;5113726;28;19919;-58
2023/01/17 14:56:51;;;;;;;;;;;6.10;99.90;;;;;;5113930;28;19915;-58
2023/01/17 14:59:20;;;;;;;;;;;5.90;99.90;;;;;;5112437;27;20383;-58
2023/01/17 15:01:50;;;;;;;;;;;5.70;99.90;;;;;;5114377;28;19908;-58
2023/01/17 15:04:26;;;;;;;;;;;5.40;99.90;;;;;;5121569;27;19918;-58
2023/01/17 15:06:52;;;;;;;;;;;5.20;99.90;;;;;;5129114;27;20385;-57
2023/01/17 15:09:19;;;;;;;;;;;4.90;99.90;;;;;;5121742;27;19911;-57
2023/01/17 15:11:45;;;;;;;;;;;4.70;99.90;;;;;;5120606;27;19922;-59
2023/01/17 15:14:14;;;;;;;;;;;4.50;99.90;;;;;;5113112;27;20026;-58
2023/01/17 15:16:40;;;;;;;;;;;4.40;99.90;;;;;;5126249;27;19963;-58
2023/01/17 15:19:13;;;;;;;;;;;4.20;99.90;;;;;;5133725;27;20006;-58
2023/01/17 15:21:41;;;;;;;;;;;4.20;99.90;;;;;;5130365;27;20013;-58
2023/01/17 15:24:19;;;;;;;;;;;4.00;99.90;;;;;;5132792;27;19908;-58
2023/01/17 15:26:45;;;;;;;;;;;4.00;99.90;;;;;;5133635;27;19908;-58
2023/01/17 15:29:17;;;;;;;;;;;3.90;99.90;;;;;;5125726;27;19915;-58
2023/01/17 15:31:48;;;;;;;;;;;3.80;99.90;;;;;;5112888;28;20011;-60
2023/01/17 15:34:33;;;;;;;;;;;3.70;99.90;;;;;;5132888;27;19915;-59
2023/01/17 15:37:01;;;;;;;;;;;3.60;99.90;;;;;;5114186;27;20006;-57
2023/01/17 15:39:29;;;;;;;;;;;3.60;99.90;;;;;;5113332;27;19918;-58
2023/01/17 15:41:56;;;;;;;;;;;3.50;99.90;;;;;;5111929;28;20408;-59
2023/01/17 15:44:27;;;;;;;;;;;3.40;99.90;;;;;;5113249;27;19915;-59
2023/01/17 15:46:52;;;;;;;;;;;3.40;99.90;;;;;;5133454;27;19911;-58
2023/01/17 15:49:19;;;;;;;;;;;3.30;99.90;;;;;;5132556;27;19908;-58
2023/01/17 15:51:47;;;;;;;;;;;3.20;99.90;;;;;;5132750;27;19951;-59
2023/01/17 15:54:27;;;;;;;;;;;3.20;99.90;;;;;;5112132;28;20380;-58
2023/01/17 15:57:11;;;;;;;;;;;3.10;99.90;;;;;;5112396;28;19908;-58
2023/01/17 15:59:36;;;;;;;;;;;3.00;99.90;;;;;;5114868;28;19963;-57
2023/01/17 16:02:02;;;;;;;;;;;2.90;99.90;;;;;;5132624;28;19961;-59
2023/01/17 16:04:36;;;;;;;;;;;2.90;99.90;;;;;;5133029;28;19907;-58
2023/01/17 16:07:08;;;;;;;;;;;2.90;99.90;;;;;;5131238;28;19908;-58